sensor_id;sensor_type;location;lat;lon;timestamp;P1;durP1;ratioP1;P2;durP2;ratioP2
8640;SDS011;4358;42.100;25.222;2023-05-10T00:01:10;5.60;;;3.53;;
8640;SDS011;4358;42.100;25.222;2023-05-10T00:03:37;6.03;;;4.00;;
8640;SDS011;4358;42.100;25.222;2023-05-10T00:06:04;5.77;;;3.67;;
8640;SDS011;4358;42.100;25.222;2023-05-10T00:08:32;6.43;;;4.00;;
8640;SDS011;4358;42.100;25.222;2023-05-10T00:10:59;4.37;;;3.93;;
8640;SDS011;4358;42.100;25.222;2023-05-10T00:13:26;7.10;;;4.00;;
8640;SDS011;4358;42.100;25.222;2023-05-10T00:15:53;6.70;;;5.63;;
8640;SDS011;4358;42.100;25.222;2023-05-10T00:18:19;5.57;;;4.80;;
8640;SDS011;4358;42.100;25.222;2023-05-10T00:20:46;5.03;;;4.53;;
8640;SDS011;4358;42.100;25.222;2023-05-10T00:23:14;7.23;;;4.47;;
8640;SDS011;4358;42.100;25.222;2023-05-10T00:25:42;7.73;;;5.90;;
8640;SDS011;4358;42.100;25.222;2023-05-10T00:28:08;6.83;;;5.93;;
8640;SDS011;4358;42.100;25.222;2023-05-10T00:30:35;6.40;;;5.30;;
8640;SDS011;4358;42.100;25.222;2023-05-10T00:33:02;7.17;;;5.80;;
8640;SDS011;4358;42.100;25.222;2023-05-10T00:35:29;9.43;;;6.93;;
8640;SDS011;4358;42.100;25.222;2023-05-10T00:37:56;6.87;;;6.17;;
8640;SDS011;4358;42.100;25.222;2023-05-10T00:40:23;6.10;;;5.47;;
8640;SDS011;4358;42.100;25.222;2023-05-10T00:42:51;5.40;;;4.90;;
8640;SDS011;4358;42.100;25.222;2023-05-10T00:45:18;6.97;;;5.43;;
8640;SDS011;4358;42.100;25.222;2023-05-10T00:47:45;6.67;;;5.50;;
8640;SDS011;4358;42.100;25.222;2023-05-10T00:50:12;7.23;;;5.87;;
8640;SDS011;4358;42.100;25.222;2023-05-10T00:52:39;7.50;;;6.70;;
8640;SDS011;4358;42.100;25.222;2023-05-10T00:55:07;8.17;;;6.77;;
8640;SDS011;4358;42.100;25.222;2023-05-10T00:57:35;6.03;;;5.33;;
8640;SDS011;4358;42.100;25.222;2023-05-10T01:00:04;8.97;;;6.93;;
8640;SDS011;4358;42.100;25.222;2023-05-10T01:02:33;9.57;;;6.87;;
8640;SDS011;4358;42.100;25.222;2023-05-10T01:05:00;8.03;;;5.90;;
8640;SDS011;4358;42.100;25.222;2023-05-10T01:07:29;5.63;;;4.70;;
8640;SDS011;4358;42.100;25.222;2023-05-10T01:09:56;7.13;;;4.70;;
8640;SDS011;4358;42.100;25.222;2023-05-10T01:12:23;6.23;;;5.37;;
8640;SDS011;4358;42.100;25.222;2023-05-10T01:14:50;9.57;;;4.80;;
8640;SDS011;4358;42.100;25.222;2023-05-10T01:17:18;6.20;;;4.77;;
8640;SDS011;4358;42.100;25.222;2023-05-10T01:19:47;5.37;;;4.87;;
8640;SDS011;4358;42.100;25.222;2023-05-10T01:22:20;5.63;;;4.40;;
8640;SDS011;4358;42.100;25.222;2023-05-10T01:25:18;7.67;;;5.47;;
8640;SDS011;4358;42.100;25.222;2023-05-10T01:28:17;8.17;;;5.57;;
8640;SDS011;4358;42.100;25.222;2023-05-10T01:31:12;6.83;;;5.53;;
8640;SDS011;4358;42.100;25.222;2023-05-10T01:33:56;6.70;;;5.00;;
8640;SDS011;4358;42.100;25.222;2023-05-10T01:36:30;7.07;;;5.33;;
8640;SDS011;4358;42.100;25.222;2023-05-10T01:39:00;5.53;;;4.87;;
8640;SDS011;4358;42.100;25.222;2023-05-10T01:41:36;10.50;;;5.37;;
8640;SDS011;4358;42.100;25.222;2023-05-10T01:44:11;5.90;;;5.23;;
8640;SDS011;4358;42.100;25.222;2023-05-10T01:46:44;6.73;;;4.33;;
8640;SDS011;4358;42.100;25.222;2023-05-10T01:49:21;7.77;;;5.63;;
8640;SDS011;4358;42.100;25.222;2023-05-10T01:51:53;6.30;;;4.70;;
8640;SDS011;4358;42.100;25.222;2023-05-10T01:54:25;6.33;;;4.60;;
8640;SDS011;4358;42.100;25.222;2023-05-10T01:56:55;6.23;;;4.10;;
8640;SDS011;4358;42.100;25.222;2023-05-10T01:59:29;6.37;;;4.07;;
8640;SDS011;4358;42.100;25.222;2023-05-10T02:02:01;6.37;;;4.23;;
8640;SDS011;4358;42.100;25.222;2023-05-10T02:04:32;4.97;;;4.47;;
8640;SDS011;4358;42.100;25.222;2023-05-10T02:07:01;5.37;;;4.87;;
8640;SDS011;4358;42.100;25.222;2023-05-10T02:09:29;14.03;;;8.43;;
8640;SDS011;4358;42.100;25.222;2023-05-10T02:11:58;10.10;;;6.73;;
8640;SDS011;4358;42.100;25.222;2023-05-10T02:14:27;6.00;;;5.40;;
8640;SDS011;4358;42.100;25.222;2023-05-10T02:16:56;8.93;;;6.23;;
8640;SDS011;4358;42.100;25.222;2023-05-10T02:19:25;6.43;;;4.87;;
8640;SDS011;4358;42.100;25.222;2023-05-10T02:21:56;5.50;;;4.80;;
8640;SDS011;4358;42.100;25.222;2023-05-10T02:24:26;10.27;;;5.73;;
8640;SDS011;4358;42.100;25.222;2023-05-10T02:26:54;10.63;;;8.90;;
8640;SDS011;4358;42.100;25.222;2023-05-10T02:29:22;12.37;;;9.67;;
8640;SDS011;4358;42.100;25.222;2023-05-10T02:31:51;13.27;;;10.70;;
8640;SDS011;4358;42.100;25.222;2023-05-10T02:34:19;13.57;;;8.90;;
8640;SDS011;4358;42.100;25.222;2023-05-10T02:36:48;9.20;;;6.87;;
8640;SDS011;4358;42.100;25.222;2023-05-10T02:39:19;5.67;;;4.80;;
8640;SDS011;4358;42.100;25.222;2023-05-10T02:41:47;8.23;;;5.50;;
8640;SDS011;4358;42.100;25.222;2023-05-10T02:44:15;7.93;;;7.13;;
8640;SDS011;4358;42.100;25.222;2023-05-10T02:46:45;6.40;;;5.37;;
8640;SDS011;4358;42.100;25.222;2023-05-10T02:49:13;8.00;;;5.63;;
8640;SDS011;4358;42.100;25.222;2023-05-10T02:51:40;5.87;;;5.27;;
8640;SDS011;4358;42.100;25.222;2023-05-10T02:54:12;9.97;;;6.07;;
8640;SDS011;4358;42.100;25.222;2023-05-10T02:56:47;7.87;;;5.07;;
8640;SDS011;4358;42.100;25.222;2023-05-10T02:59:16;9.37;;;5.87;;
8640;SDS011;4358;42.100;25.222;2023-05-10T03:01:43;8.53;;;6.70;;
8640;SDS011;4358;42.100;25.222;2023-05-10T03:04:10;6.30;;;5.20;;
8640;SDS011;4358;42.100;25.222;2023-05-10T03:06:37;4.90;;;4.40;;
8640;SDS011;4358;42.100;25.222;2023-05-10T03:09:04;7.13;;;6.13;;
8640;SDS011;4358;42.100;25.222;2023-05-10T03:11:36;9.70;;;6.47;;
8640;SDS011;4358;42.100;25.222;2023-05-10T03:14:16;6.97;;;5.27;;
8640;SDS011;4358;42.100;25.222;2023-05-10T03:16:54;5.87;;;4.20;;
8640;SDS011;4358;42.100;25.222;2023-05-10T03:19:27;6.53;;;4.60;;
8640;SDS011;4358;42.100;25.222;2023-05-10T03:21:59;7.07;;;4.37;;
8640;SDS011;4358;42.100;25.222;2023-05-10T03:24:29;8.13;;;4.63;;
8640;SDS011;4358;42.100;25.222;2023-05-10T03:26:58;6.00;;;4.23;;
8640;SDS011;4358;42.100;25.222;2023-05-10T03:29:30;6.63;;;4.70;;
8640;SDS011;4358;42.100;25.222;2023-05-10T03:31:57;6.40;;;4.00;;
8640;SDS011;4358;42.100;25.222;2023-05-10T03:34:25;5.00;;;4.30;;
8640;SDS011;4358;42.100;25.222;2023-05-10T03:36:52;4.47;;;4.07;;
8640;SDS011;4358;42.100;25.222;2023-05-10T03:39:19;6.57;;;4.00;;
8640;SDS011;4358;42.100;25.222;2023-05-10T03:41:46;5.33;;;4.50;;
8640;SDS011;4358;42.100;25.222;2023-05-10T03:44:13;6.77;;;4.33;;
8640;SDS011;4358;42.100;25.222;2023-05-10T03:46:42;7.20;;;4.13;;
8640;SDS011;4358;42.100;25.222;2023-05-10T03:49:08;5.03;;;4.00;;
8640;SDS011;4358;42.100;25.222;2023-05-10T03:51:35;5.47;;;4.37;;
8640;SDS011;4358;42.100;25.222;2023-05-10T03:54:02;5.97;;;4.53;;
8640;SDS011;4358;42.100;25.222;2023-05-10T03:56:29;6.53;;;4.10;;
8640;SDS011;4358;42.100;25.222;2023-05-10T03:58:56;5.33;;;4.23;;
8640;SDS011;4358;42.100;25.222;2023-05-10T04:01:23;4.87;;;4.30;;
8640;SDS011;4358;42.100;25.222;2023-05-10T04:03:51;5.37;;;4.70;;
8640;SDS011;4358;42.100;25.222;2023-05-10T04:06:18;7.03;;;4.60;;
8640;SDS011;4358;42.100;25.222;2023-05-10T04:08:45;6.93;;;4.30;;
8640;SDS011;4358;42.100;25.222;2023-05-10T04:11:12;4.60;;;4.20;;
8640;SDS011;4358;42.100;25.222;2023-05-10T04:13:39;4.10;;;3.70;;
8640;SDS011;4358;42.100;25.222;2023-05-10T04:16:06;6.53;;;3.97;;
8640;SDS011;4358;42.100;25.222;2023-05-10T04:18:33;6.57;;;4.30;;
8640;SDS011;4358;42.100;25.222;2023-05-10T04:21:01;6.37;;;4.03;;
8640;SDS011;4358;42.100;25.222;2023-05-10T04:23:28;8.43;;;3.80;;
8640;SDS011;4358;42.100;25.222;2023-05-10T04:25:58;4.40;;;3.80;;
8640;SDS011;4358;42.100;25.222;2023-05-10T04:28:26;4.63;;;3.57;;
8640;SDS011;4358;42.100;25.222;2023-05-10T04:30:53;4.27;;;3.87;;
8640;SDS011;4358;42.100;25.222;2023-05-10T04:33:21;4.90;;;3.90;;
8640;SDS011;4358;42.100;25.222;2023-05-10T04:35:47;6.40;;;4.20;;
8640;SDS011;4358;42.100;25.222;2023-05-10T04:38:16;4.77;;;4.17;;
8640;SDS011;4358;42.100;25.222;2023-05-10T04:40:42;5.63;;;4.20;;
8640;SDS011;4358;42.100;25.222;2023-05-10T04:43:09;7.47;;;4.20;;
8640;SDS011;4358;42.100;25.222;2023-05-10T04:45:36;10.17;;;4.40;;
8640;SDS011;4358;42.100;25.222;2023-05-10T04:48:03;8.00;;;4.80;;
8640;SDS011;4358;42.100;25.222;2023-05-10T04:50:30;7.97;;;4.50;;
8640;SDS011;4358;42.100;25.222;2023-05-10T04:52:57;6.90;;;4.53;;
8640;SDS011;4358;42.100;25.222;2023-05-10T04:55:26;11.47;;;5.20;;
8640;SDS011;4358;42.100;25.222;2023-05-10T04:57:53;6.00;;;4.27;;
8640;SDS011;4358;42.100;25.222;2023-05-10T05:00:22;8.30;;;4.13;;
8640;SDS011;4358;42.100;25.222;2023-05-10T05:02:49;9.83;;;3.93;;
8640;SDS011;4358;42.100;25.222;2023-05-10T05:05:16;8.33;;;4.10;;
8640;SDS011;4358;42.100;25.222;2023-05-10T05:07:43;6.13;;;4.30;;
8640;SDS011;4358;42.100;25.222;2023-05-10T05:10:10;8.73;;;4.30;;
8640;SDS011;4358;42.100;25.222;2023-05-10T05:12:38;7.47;;;4.00;;
8640;SDS011;4358;42.100;25.222;2023-05-10T05:15:05;7.77;;;4.13;;
8640;SDS011;4358;42.100;25.222;2023-05-10T05:17:34;6.50;;;4.07;;
8640;SDS011;4358;42.100;25.222;2023-05-10T05:20:01;6.17;;;3.70;;
8640;SDS011;4358;42.100;25.222;2023-05-10T05:22:28;6.17;;;3.80;;
8640;SDS011;4358;42.100;25.222;2023-05-10T05:24:55;4.77;;;4.27;;
8640;SDS011;4358;42.100;25.222;2023-05-10T05:27:23;4.73;;;4.27;;
8640;SDS011;4358;42.100;25.222;2023-05-10T05:29:54;6.40;;;3.67;;
8640;SDS011;4358;42.100;25.222;2023-05-10T05:32:21;8.10;;;3.67;;
8640;SDS011;4358;42.100;25.222;2023-05-10T05:34:48;5.43;;;3.60;;
8640;SDS011;4358;42.100;25.222;2023-05-10T05:37:15;4.37;;;3.50;;
8640;SDS011;4358;42.100;25.222;2023-05-10T05:39:43;6.27;;;3.83;;
8640;SDS011;4358;42.100;25.222;2023-05-10T05:42:10;4.97;;;3.30;;
8640;SDS011;4358;42.100;25.222;2023-05-10T05:44:39;4.83;;;3.40;;
8640;SDS011;4358;42.100;25.222;2023-05-10T05:47:07;4.03;;;3.63;;
8640;SDS011;4358;42.100;25.222;2023-05-10T05:49:34;9.20;;;3.67;;
8640;SDS011;4358;42.100;25.222;2023-05-10T05:52:01;3.53;;;3.20;;
8640;SDS011;4358;42.100;25.222;2023-05-10T05:54:29;4.23;;;3.77;;
8640;SDS011;4358;42.100;25.222;2023-05-10T05:56:56;4.87;;;4.00;;
8640;SDS011;4358;42.100;25.222;2023-05-10T05:59:24;4.37;;;3.33;;
8640;SDS011;4358;42.100;25.222;2023-05-10T06:01:51;7.00;;;3.50;;
8640;SDS011;4358;42.100;25.222;2023-05-10T06:04:19;3.27;;;2.87;;
8640;SDS011;4358;42.100;25.222;2023-05-10T06:06:46;3.90;;;3.50;;
8640;SDS011;4358;42.100;25.222;2023-05-10T06:09:12;4.70;;;3.33;;
8640;SDS011;4358;42.100;25.222;2023-05-10T06:11:39;5.67;;;3.50;;
8640;SDS011;4358;42.100;25.222;2023-05-10T06:14:06;3.87;;;3.30;;
8640;SDS011;4358;42.100;25.222;2023-05-10T06:16:33;4.33;;;2.90;;
8640;SDS011;4358;42.100;25.222;2023-05-10T06:19:00;5.77;;;3.90;;
8640;SDS011;4358;42.100;25.222;2023-05-10T06:21:28;4.60;;;3.70;;
8640;SDS011;4358;42.100;25.222;2023-05-10T06:23:56;3.97;;;3.57;;
8640;SDS011;4358;42.100;25.222;2023-05-10T06:26:23;3.33;;;3.03;;
8640;SDS011;4358;42.100;25.222;2023-05-10T06:28:50;3.37;;;3.07;;
8640;SDS011;4358;42.100;25.222;2023-05-10T06:31:16;3.50;;;3.20;;
8640;SDS011;4358;42.100;25.222;2023-05-10T06:33:43;4.50;;;3.40;;
8640;SDS011;4358;42.100;25.222;2023-05-10T06:36:10;4.87;;;3.47;;
8640;SDS011;4358;42.100;25.222;2023-05-10T06:38:48;4.27;;;3.30;;
8640;SDS011;4358;42.100;25.222;2023-05-10T06:41:16;4.90;;;3.80;;
8640;SDS011;4358;42.100;25.222;2023-05-10T06:43:43;4.97;;;4.47;;
8640;SDS011;4358;42.100;25.222;2023-05-10T06:46:09;5.63;;;3.63;;
8640;SDS011;4358;42.100;25.222;2023-05-10T06:48:44;6.07;;;4.70;;
8640;SDS011;4358;42.100;25.222;2023-05-10T06:51:11;4.20;;;2.90;;
8640;SDS011;4358;42.100;25.222;2023-05-10T06:53:38;4.17;;;3.43;;
8640;SDS011;4358;42.100;25.222;2023-05-10T06:56:06;3.20;;;2.90;;
8640;SDS011;4358;42.100;25.222;2023-05-10T06:58:35;5.03;;;3.50;;
8640;SDS011;4358;42.100;25.222;2023-05-10T07:01:03;4.30;;;3.43;;
8640;SDS011;4358;42.100;25.222;2023-05-10T07:03:30;5.67;;;3.70;;
8640;SDS011;4358;42.100;25.222;2023-05-10T07:06:01;4.27;;;3.57;;
8640;SDS011;4358;42.100;25.222;2023-05-10T07:08:29;10.90;;;2.63;;
8640;SDS011;4358;42.100;25.222;2023-05-10T07:11:00;5.97;;;3.97;;
8640;SDS011;4358;42.100;25.222;2023-05-10T07:13:30;6.47;;;3.17;;
8640;SDS011;4358;42.100;25.222;2023-05-10T07:15:57;7.53;;;3.30;;
8640;SDS011;4358;42.100;25.222;2023-05-10T07:18:24;3.10;;;2.80;;
8640;SDS011;4358;42.100;25.222;2023-05-10T07:20:51;4.03;;;3.03;;
8640;SDS011;4358;42.100;25.222;2023-05-10T07:23:18;5.00;;;3.53;;
8640;SDS011;4358;42.100;25.222;2023-05-10T07:25:45;6.53;;;3.30;;
8640;SDS011;4358;42.100;25.222;2023-05-10T07:28:12;3.40;;;3.10;;
8640;SDS011;4358;42.100;25.222;2023-05-10T07:30:41;2.97;;;2.73;;
8640;SDS011;4358;42.100;25.222;2023-05-10T07:33:08;3.37;;;2.93;;
8640;SDS011;4358;42.100;25.222;2023-05-10T07:35:36;4.67;;;3.00;;
8640;SDS011;4358;42.100;25.222;2023-05-10T07:38:03;4.43;;;2.80;;
8640;SDS011;4358;42.100;25.222;2023-05-10T07:40:31;3.30;;;3.00;;
8640;SDS011;4358;42.100;25.222;2023-05-10T07:42:58;5.40;;;3.20;;
8640;SDS011;4358;42.100;25.222;2023-05-10T07:45:27;3.03;;;2.70;;
8640;SDS011;4358;42.100;25.222;2023-05-10T07:47:55;5.30;;;2.67;;
8640;SDS011;4358;42.100;25.222;2023-05-10T07:50:22;4.93;;;2.73;;
8640;SDS011;4358;42.100;25.222;2023-05-10T07:52:48;4.13;;;3.07;;
8640;SDS011;4358;42.100;25.222;2023-05-10T07:55:15;10.07;;;3.67;;
8640;SDS011;4358;42.100;25.222;2023-05-10T07:57:44;4.53;;;2.97;;
8640;SDS011;4358;42.100;25.222;2023-05-10T08:00:12;4.33;;;3.50;;
8640;SDS011;4358;42.100;25.222;2023-05-10T08:02:43;6.43;;;3.07;;
8640;SDS011;4358;42.100;25.222;2023-05-10T08:05:11;6.03;;;2.90;;
8640;SDS011;4358;42.100;25.222;2023-05-10T08:07:38;2.90;;;2.43;;
8640;SDS011;4358;42.100;25.222;2023-05-10T08:10:06;6.17;;;3.37;;
8640;SDS011;4358;42.100;25.222;2023-05-10T08:12:34;4.43;;;3.20;;
8640;SDS011;4358;42.100;25.222;2023-05-10T08:15:00;3.00;;;2.67;;
8640;SDS011;4358;42.100;25.222;2023-05-10T08:17:27;3.27;;;2.93;;
8640;SDS011;4358;42.100;25.222;2023-05-10T08:19:54;3.60;;;2.83;;
8640;SDS011;4358;42.100;25.222;2023-05-10T08:22:22;7.83;;;3.10;;
8640;SDS011;4358;42.100;25.222;2023-05-10T08:24:49;3.77;;;2.80;;
8640;SDS011;4358;42.100;25.222;2023-05-10T08:27:16;3.33;;;3.03;;
8640;SDS011;4358;42.100;25.222;2023-05-10T08:29:42;8.73;;;3.13;;
8640;SDS011;4358;42.100;25.222;2023-05-10T08:32:09;4.67;;;3.47;;
8640;SDS011;4358;42.100;25.222;2023-05-10T08:34:36;6.43;;;3.97;;
8640;SDS011;4358;42.100;25.222;2023-05-10T08:37:03;3.80;;;3.50;;
8640;SDS011;4358;42.100;25.222;2023-05-10T08:39:34;5.23;;;4.17;;
8640;SDS011;4358;42.100;25.222;2023-05-10T08:42:02;5.37;;;4.30;;
8640;SDS011;4358;42.100;25.222;2023-05-10T08:44:31;4.83;;;2.97;;
8640;SDS011;4358;42.100;25.222;2023-05-10T08:47:02;5.87;;;4.10;;
8640;SDS011;4358;42.100;25.222;2023-05-10T08:49:31;3.93;;;3.50;;
8640;SDS011;4358;42.100;25.222;2023-05-10T08:52:01;5.63;;;3.90;;
8640;SDS011;4358;42.100;25.222;2023-05-10T08:54:31;4.37;;;3.20;;
8640;SDS011;4358;42.100;25.222;2023-05-10T08:57:00;3.33;;;3.03;;
8640;SDS011;4358;42.100;25.222;2023-05-10T08:59:27;4.53;;;3.30;;
8640;SDS011;4358;42.100;25.222;2023-05-10T09:01:58;3.20;;;2.90;;
8640;SDS011;4358;42.100;25.222;2023-05-10T09:04:25;6.20;;;3.23;;
8640;SDS011;4358;42.100;25.222;2023-05-10T09:06:52;3.57;;;3.00;;
8640;SDS011;4358;42.100;25.222;2023-05-10T09:09:19;4.23;;;3.27;;
8640;SDS011;4358;42.100;25.222;2023-05-10T09:11:47;4.27;;;2.60;;
8640;SDS011;4358;42.100;25.222;2023-05-10T09:14:15;4.73;;;2.53;;
8640;SDS011;4358;42.100;25.222;2023-05-10T09:16:43;4.30;;;2.60;;
8640;SDS011;4358;42.100;25.222;2023-05-10T09:19:10;4.70;;;2.53;;
8640;SDS011;4358;42.100;25.222;2023-05-10T09:21:37;2.87;;;2.27;;
8640;SDS011;4358;42.100;25.222;2023-05-10T09:24:05;3.70;;;2.40;;
8640;SDS011;4358;42.100;25.222;2023-05-10T09:26:32;5.50;;;2.27;;
8640;SDS011;4358;42.100;25.222;2023-05-10T09:29:01;2.93;;;2.33;;
8640;SDS011;4358;42.100;25.222;2023-05-10T09:34:16;3.17;;;2.50;;
8640;SDS011;4358;42.100;25.222;2023-05-10T09:36:50;5.27;;;2.27;;
8640;SDS011;4358;42.100;25.222;2023-05-10T09:39:18;3.57;;;2.40;;
8640;SDS011;4358;42.100;25.222;2023-05-10T09:41:45;2.97;;;2.10;;
8640;SDS011;4358;42.100;25.222;2023-05-10T09:44:16;4.57;;;2.43;;
8640;SDS011;4358;42.100;25.222;2023-05-10T09:46:49;2.13;;;1.93;;
8640;SDS011;4358;42.100;25.222;2023-05-10T09:49:18;2.00;;;1.80;;
8640;SDS011;4358;42.100;25.222;2023-05-10T09:51:45;2.67;;;2.20;;
8640;SDS011;4358;42.100;25.222;2023-05-10T09:54:12;3.37;;;2.20;;
8640;SDS011;4358;42.100;25.222;2023-05-10T09:56:41;4.17;;;2.37;;
8640;SDS011;4358;42.100;25.222;2023-05-10T09:59:09;3.00;;;2.43;;
8640;SDS011;4358;42.100;25.222;2023-05-10T10:01:37;2.50;;;2.17;;
8640;SDS011;4358;42.100;25.222;2023-05-10T10:04:06;2.80;;;2.40;;
8640;SDS011;4358;42.100;25.222;2023-05-10T10:06:37;3.83;;;2.40;;
8640;SDS011;4358;42.100;25.222;2023-05-10T10:09:04;2.90;;;2.60;;
8640;SDS011;4358;42.100;25.222;2023-05-10T10:11:33;3.40;;;2.80;;
8640;SDS011;4358;42.100;25.222;2023-05-10T10:14:01;3.77;;;2.60;;
8640;SDS011;4358;42.100;25.222;2023-05-10T10:16:28;6.43;;;3.90;;
8640;SDS011;4358;42.100;25.222;2023-05-10T10:18:55;3.47;;;2.80;;
8640;SDS011;4358;42.100;25.222;2023-05-10T10:21:23;6.53;;;3.53;;
8640;SDS011;4358;42.100;25.222;2023-05-10T10:23:50;6.40;;;4.00;;
8640;SDS011;4358;42.100;25.222;2023-05-10T10:26:18;3.83;;;3.37;;
8640;SDS011;4358;42.100;25.222;2023-05-10T10:28:48;3.47;;;3.17;;
8640;SDS011;4358;42.100;25.222;2023-05-10T10:31:21;3.67;;;3.37;;
8640;SDS011;4358;42.100;25.222;2023-05-10T10:33:55;4.70;;;3.40;;
8640;SDS011;4358;42.100;25.222;2023-05-10T10:36:28;4.33;;;3.30;;
8640;SDS011;4358;42.100;25.222;2023-05-10T10:38:56;4.83;;;4.30;;
8640;SDS011;4358;42.100;25.222;2023-05-10T10:41:27;4.30;;;3.30;;
8640;SDS011;4358;42.100;25.222;2023-05-10T10:47:02;4.07;;;3.77;;
8640;SDS011;4358;42.100;25.222;2023-05-10T10:49:50;5.93;;;3.83;;
8640;SDS011;4358;42.100;25.222;2023-05-10T10:52:23;4.57;;;3.70;;
8640;SDS011;4358;42.100;25.222;2023-05-10T10:54:56;3.60;;;3.30;;
8640;SDS011;4358;42.100;25.222;2023-05-10T10:57:26;3.30;;;2.97;;
8640;SDS011;4358;42.100;25.222;2023-05-10T11:02:44;2.90;;;2.60;;
8640;SDS011;4358;42.100;25.222;2023-05-10T11:05:33;6.00;;;2.80;;
8640;SDS011;4358;42.100;25.222;2023-05-10T11:08:10;2.90;;;2.60;;
8640;SDS011;4358;42.100;25.222;2023-05-10T11:10:39;2.50;;;2.30;;
8640;SDS011;4358;42.100;25.222;2023-05-10T11:13:07;3.47;;;3.17;;
8640;SDS011;4358;42.100;25.222;2023-05-10T11:15:36;4.83;;;4.40;;
8640;SDS011;4358;42.100;25.222;2023-05-10T11:18:17;3.73;;;3.40;;
8640;SDS011;4358;42.100;25.222;2023-05-10T11:20:48;4.63;;;3.63;;
8640;SDS011;4358;42.100;25.222;2023-05-10T11:23:18;5.70;;;5.10;;
8640;SDS011;4358;42.100;25.222;2023-05-10T11:25:47;4.27;;;3.60;;
8640;SDS011;4358;42.100;25.222;2023-05-10T11:28:14;4.40;;;4.00;;
8640;SDS011;4358;42.100;25.222;2023-05-10T11:30:43;5.20;;;3.97;;
8640;SDS011;4358;42.100;25.222;2023-05-10T11:33:14;7.07;;;3.77;;
8640;SDS011;4358;42.100;25.222;2023-05-10T11:35:42;4.13;;;3.70;;
8640;SDS011;4358;42.100;25.222;2023-05-10T11:38:09;5.20;;;4.70;;
8640;SDS011;4358;42.100;25.222;2023-05-10T11:40:39;5.07;;;4.57;;
8640;SDS011;4358;42.100;25.222;2023-05-10T11:43:06;7.23;;;5.00;;
8640;SDS011;4358;42.100;25.222;2023-05-10T11:45:35;5.07;;;4.43;;
8640;SDS011;4358;42.100;25.222;2023-05-10T11:48:02;4.60;;;4.20;;
8640;SDS011;4358;42.100;25.222;2023-05-10T11:50:29;4.33;;;4.03;;
8640;SDS011;4358;42.100;25.222;2023-05-10T11:52:56;3.90;;;3.50;;
8640;SDS011;4358;42.100;25.222;2023-05-10T11:55:23;3.80;;;3.40;;
8640;SDS011;4358;42.100;25.222;2023-05-10T11:57:55;3.67;;;3.37;;
8640;SDS011;4358;42.100;25.222;2023-05-10T12:00:26;4.17;;;3.10;;
8640;SDS011;4358;42.100;25.222;2023-05-10T12:02:53;3.93;;;3.63;;
8640;SDS011;4358;42.100;25.222;2023-05-10T12:05:19;5.03;;;3.73;;
8640;SDS011;4358;42.100;25.222;2023-05-10T12:07:47;11.60;;;4.87;;
8640;SDS011;4358;42.100;25.222;2023-05-10T12:10:14;4.40;;;3.13;;
8640;SDS011;4358;42.100;25.222;2023-05-10T12:12:42;4.53;;;3.50;;
8640;SDS011;4358;42.100;25.222;2023-05-10T12:15:12;3.10;;;2.80;;
8640;SDS011;4358;42.100;25.222;2023-05-10T12:17:43;3.20;;;2.90;;
8640;SDS011;4358;42.100;25.222;2023-05-10T12:20:13;3.50;;;3.20;;
8640;SDS011;4358;42.100;25.222;2023-05-10T12:22:43;4.47;;;3.43;;
8640;SDS011;4358;42.100;25.222;2023-05-10T12:25:13;8.03;;;3.60;;
8640;SDS011;4358;42.100;25.222;2023-05-10T12:27:40;3.97;;;3.00;;
8640;SDS011;4358;42.100;25.222;2023-05-10T12:30:17;6.10;;;3.10;;
8640;SDS011;4358;42.100;25.222;2023-05-10T12:32:45;2.73;;;2.50;;
8640;SDS011;4358;42.100;25.222;2023-05-10T12:35:12;2.57;;;2.37;;
8640;SDS011;4358;42.100;25.222;2023-05-10T12:37:39;2.73;;;2.53;;
8640;SDS011;4358;42.100;25.222;2023-05-10T12:40:06;3.47;;;2.70;;
8640;SDS011;4358;42.100;25.222;2023-05-10T12:42:34;3.50;;;2.33;;
8640;SDS011;4358;42.100;25.222;2023-05-10T12:45:02;2.87;;;2.50;;
8640;SDS011;4358;42.100;25.222;2023-05-10T12:47:31;4.83;;;2.80;;
8640;SDS011;4358;42.100;25.222;2023-05-10T12:49:58;3.20;;;2.90;;
8640;SDS011;4358;42.100;25.222;2023-05-10T12:52:26;2.83;;;2.50;;
8640;SDS011;4358;42.100;25.222;2023-05-10T12:54:53;6.43;;;3.17;;
8640;SDS011;4358;42.100;25.222;2023-05-10T12:57:20;13.17;;;2.90;;
8640;SDS011;4358;42.100;25.222;2023-05-10T12:59:47;3.33;;;3.00;;
8640;SDS011;4358;42.100;25.222;2023-05-10T13:02:13;2.50;;;2.30;;
8640;SDS011;4358;42.100;25.222;2023-05-10T13:04:44;3.87;;;2.23;;
8640;SDS011;4358;42.100;25.222;2023-05-10T13:07:11;2.60;;;2.40;;
8640;SDS011;4358;42.100;25.222;2023-05-10T13:09:38;2.60;;;2.40;;
8640;SDS011;4358;42.100;25.222;2023-05-10T13:12:06;2.20;;;2.00;;
8640;SDS011;4358;42.100;25.222;2023-05-10T13:14:32;2.40;;;2.20;;
8640;SDS011;4358;42.100;25.222;2023-05-10T13:16:59;2.17;;;1.97;;
8640;SDS011;4358;42.100;25.222;2023-05-10T13:19:26;2.17;;;1.90;;
8640;SDS011;4358;42.100;25.222;2023-05-10T13:21:54;2.27;;;2.07;;
8640;SDS011;4358;42.100;25.222;2023-05-10T13:24:21;2.10;;;1.80;;
8640;SDS011;4358;42.100;25.222;2023-05-10T13:26:48;3.40;;;2.10;;
8640;SDS011;4358;42.100;25.222;2023-05-10T13:29:15;4.00;;;3.37;;
8640;SDS011;4358;42.100;25.222;2023-05-10T13:31:43;16.23;;;13.77;;
8640;SDS011;4358;42.100;25.222;2023-05-10T13:34:10;3.73;;;3.43;;
8640;SDS011;4358;42.100;25.222;2023-05-10T13:36:37;6.57;;;5.77;;
8640;SDS011;4358;42.100;25.222;2023-05-10T13:39:05;4.83;;;4.33;;
8640;SDS011;4358;42.100;25.222;2023-05-10T13:41:32;3.70;;;3.10;;
8640;SDS011;4358;42.100;25.222;2023-05-10T13:43:59;3.30;;;2.93;;
8640;SDS011;4358;42.100;25.222;2023-05-10T13:46:26;3.57;;;3.20;;
8640;SDS011;4358;42.100;25.222;2023-05-10T13:48:52;4.67;;;2.50;;
8640;SDS011;4358;42.100;25.222;2023-05-10T13:51:19;2.53;;;1.97;;
8640;SDS011;4358;42.100;25.222;2023-05-10T13:53:46;5.53;;;2.57;;
8640;SDS011;4358;42.100;25.222;2023-05-10T13:59:06;1.93;;;1.83;;
8640;SDS011;4358;42.100;25.222;2023-05-10T14:01:33;5.57;;;2.23;;
8640;SDS011;4358;42.100;25.222;2023-05-10T14:04:01;1.93;;;1.83;;
8640;SDS011;4358;42.100;25.222;2023-05-10T14:06:28;2.87;;;2.00;;
8640;SDS011;4358;42.100;25.222;2023-05-10T14:08:55;2.57;;;1.97;;
8640;SDS011;4358;42.100;25.222;2023-05-10T14:11:22;3.00;;;2.67;;
8640;SDS011;4358;42.100;25.222;2023-05-10T14:13:51;2.90;;;2.07;;
8640;SDS011;4358;42.100;25.222;2023-05-10T14:16:18;2.10;;;1.90;;
8640;SDS011;4358;42.100;25.222;2023-05-10T14:18:45;3.43;;;2.40;;
8640;SDS011;4358;42.100;25.222;2023-05-10T14:21:12;2.90;;;1.90;;
8640;SDS011;4358;42.100;25.222;2023-05-10T14:23:39;2.50;;;2.30;;
8640;SDS011;4358;42.100;25.222;2023-05-10T14:26:06;2.23;;;2.03;;
8640;SDS011;4358;42.100;25.222;2023-05-10T14:28:33;1.87;;;1.77;;
8640;SDS011;4358;42.100;25.222;2023-05-10T14:31:01;9.63;;;1.70;;
8640;SDS011;4358;42.100;25.222;2023-05-10T14:33:28;2.07;;;1.60;;
8640;SDS011;4358;42.100;25.222;2023-05-10T14:35:55;2.23;;;1.93;;
8640;SDS011;4358;42.100;25.222;2023-05-10T14:38:22;3.03;;;2.00;;
8640;SDS011;4358;42.100;25.222;2023-05-10T14:40:49;2.13;;;1.87;;
8640;SDS011;4358;42.100;25.222;2023-05-10T14:43:16;5.17;;;1.90;;
8640;SDS011;4358;42.100;25.222;2023-05-10T14:45:43;2.43;;;1.90;;
8640;SDS011;4358;42.100;25.222;2023-05-10T14:48:12;3.17;;;1.90;;
8640;SDS011;4358;42.100;25.222;2023-05-10T14:50:42;3.77;;;1.90;;
8640;SDS011;4358;42.100;25.222;2023-05-10T14:56:04;1.70;;;1.60;;
8640;SDS011;4358;42.100;25.222;2023-05-10T14:58:31;1.70;;;1.60;;
8640;SDS011;4358;42.100;25.222;2023-05-10T15:00:58;2.20;;;1.87;;
8640;SDS011;4358;42.100;25.222;2023-05-10T15:03:26;5.67;;;4.47;;
8640;SDS011;4358;42.100;25.222;2023-05-10T15:05:53;3.03;;;1.80;;
8640;SDS011;4358;42.100;25.222;2023-05-10T15:08:21;3.23;;;2.10;;
8640;SDS011;4358;42.100;25.222;2023-05-10T15:10:49;2.03;;;1.80;;
8640;SDS011;4358;42.100;25.222;2023-05-10T15:13:15;3.10;;;2.57;;
8640;SDS011;4358;42.100;25.222;2023-05-10T15:15:42;2.10;;;1.90;;
8640;SDS011;4358;42.100;25.222;2023-05-10T15:18:09;2.03;;;1.90;;
8640;SDS011;4358;42.100;25.222;2023-05-10T15:20:38;3.20;;;2.50;;
8640;SDS011;4358;42.100;25.222;2023-05-10T15:23:05;2.80;;;1.77;;